sensor_id;sensor_type;location;lat;lon;timestamp;P1;durP1;ratioP1;P2;durP2;ratioP2
14472;SDS011;7322;50.872;4.386;2023-06-10T00:00:49;5.05;;;4.65;;
14472;SDS011;7322;50.872;4.386;2023-06-10T00:03:17;5.88;;;3.92;;
14472;SDS011;7322;50.872;4.386;2023-06-10T00:05:44;4.97;;;4.47;;
14472;SDS011;7322;50.872;4.386;2023-06-10T00:08:11;5.13;;;4.63;;
14472;SDS011;7322;50.872;4.386;2023-06-10T00:10:40;4.57;;;4.18;;
14472;SDS011;7322;50.872;4.386;2023-06-10T00:13:07;4.82;;;4.43;;
14472;SDS011;7322;50.872;4.386;2023-06-10T00:15:39;4.45;;;4.05;;
14472;SDS011;7322;50.872;4.386;2023-06-10T00:18:06;4.68;;;4.28;;
14472;SDS011;7322;50.872;4.386;2023-06-10T00:20:35;4.60;;;4.13;;
14472;SDS011;7322;50.872;4.386;2023-06-10T00:23:03;5.13;;;4.63;;
14472;SDS011;7322;50.872;4.386;2023-06-10T00:25:33;5.07;;;4.57;;
14472;SDS011;7322;50.872;4.386;2023-06-10T00:28:00;5.03;;;4.40;;
14472;SDS011;7322;50.872;4.386;2023-06-10T00:30:27;4.85;;;4.05;;
14472;SDS011;7322;50.872;4.386;2023-06-10T00:32:56;4.30;;;4.00;;
14472;SDS011;7322;50.872;4.386;2023-06-10T00:35:23;5.03;;;4.63;;
14472;SDS011;7322;50.872;4.386;2023-06-10T00:37:50;4.80;;;4.30;;
14472;SDS011;7322;50.872;4.386;2023-06-10T00:40:17;5.10;;;4.70;;
14472;SDS011;7322;50.872;4.386;2023-06-10T00:42:44;4.93;;;4.53;;
14472;SDS011;7322;50.872;4.386;2023-06-10T00:45:11;5.20;;;4.80;;
14472;SDS011;7322;50.872;4.386;2023-06-10T00:47:38;5.15;;;4.65;;
14472;SDS011;7322;50.872;4.386;2023-06-10T00:50:07;5.60;;;5.10;;
14472;SDS011;7322;50.872;4.386;2023-06-10T00:52:34;5.10;;;4.63;;
14472;SDS011;7322;50.872;4.386;2023-06-10T00:55:02;5.05;;;4.65;;
14472;SDS011;7322;50.872;4.386;2023-06-10T00:57:36;4.55;;;4.20;;
14472;SDS011;7322;50.872;4.386;2023-06-10T01:00:04;4.50;;;4.10;;
14472;SDS011;7322;50.872;4.386;2023-06-10T01:02:33;5.05;;;4.55;;
14472;SDS011;7322;50.872;4.386;2023-06-10T01:05:01;4.93;;;4.53;;
14472;SDS011;7322;50.872;4.386;2023-06-10T01:07:36;4.88;;;4.40;;
14472;SDS011;7322;50.872;4.386;2023-06-10T01:10:09;5.45;;;4.63;;
14472;SDS011;7322;50.872;4.386;2023-06-10T01:12:43;5.53;;;5.07;;
14472;SDS011;7322;50.872;4.386;2023-06-10T01:15:13;5.28;;;4.78;;
14472;SDS011;7322;50.872;4.386;2023-06-10T01:17:53;5.32;;;4.75;;
14472;SDS011;7322;50.872;4.386;2023-06-10T01:20:20;4.93;;;4.53;;
14472;SDS011;7322;50.872;4.386;2023-06-10T01:22:49;4.70;;;4.40;;
14472;SDS011;7322;50.872;4.386;2023-06-10T01:25:19;5.82;;;5.20;;
14472;SDS011;7322;50.872;4.386;2023-06-10T01:27:52;5.18;;;4.70;;
14472;SDS011;7322;50.872;4.386;2023-06-10T01:30:23;6.85;;;4.75;;
14472;SDS011;7322;50.872;4.386;2023-06-10T01:32:55;5.38;;;4.97;;
14472;SDS011;7322;50.872;4.386;2023-06-10T01:35:25;4.93;;;4.53;;
14472;SDS011;7322;50.872;4.386;2023-06-10T01:37:56;5.30;;;4.80;;
14472;SDS011;7322;50.872;4.386;2023-06-10T01:40:24;5.20;;;4.63;;
14472;SDS011;7322;50.872;4.386;2023-06-10T01:42:52;5.47;;;4.97;;
14472;SDS011;7322;50.872;4.386;2023-06-10T01:45:19;5.40;;;4.93;;
14472;SDS011;7322;50.872;4.386;2023-06-10T01:47:47;5.30;;;4.90;;
14472;SDS011;7322;50.872;4.386;2023-06-10T01:50:14;5.28;;;4.78;;
14472;SDS011;7322;50.872;4.386;2023-06-10T01:52:42;6.00;;;4.97;;
14472;SDS011;7322;50.872;4.386;2023-06-10T01:55:11;4.95;;;4.55;;
14472;SDS011;7322;50.872;4.386;2023-06-10T01:57:38;5.40;;;5.00;;
14472;SDS011;7322;50.872;4.386;2023-06-10T02:00:05;5.45;;;5.05;;
14472;SDS011;7322;50.872;4.386;2023-06-10T02:02:33;5.53;;;4.50;;
14472;SDS011;7322;50.872;4.386;2023-06-10T02:05:00;5.00;;;4.60;;
14472;SDS011;7322;50.872;4.386;2023-06-10T02:07:28;5.20;;;4.80;;
14472;SDS011;7322;50.872;4.386;2023-06-10T02:09:57;4.88;;;4.57;;
14472;SDS011;7322;50.872;4.386;2023-06-10T02:12:29;5.65;;;5.07;;
14472;SDS011;7322;50.872;4.386;2023-06-10T02:14:56;5.93;;;5.43;;
14472;SDS011;7322;50.872;4.386;2023-06-10T02:17:25;5.40;;;4.90;;
14472;SDS011;7322;50.872;4.386;2023-06-10T02:19:52;5.10;;;4.70;;
14472;SDS011;7322;50.872;4.386;2023-06-10T02:22:21;5.30;;;4.85;;
14472;SDS011;7322;50.872;4.386;2023-06-10T02:24:48;5.30;;;4.90;;
14472;SDS011;7322;50.872;4.386;2023-06-10T02:27:15;5.03;;;4.53;;
14472;SDS011;7322;50.872;4.386;2023-06-10T02:29:44;5.68;;;5.18;;
14472;SDS011;7322;50.872;4.386;2023-06-10T02:32:11;5.40;;;4.93;;
14472;SDS011;7322;50.872;4.386;2023-06-10T02:34:38;5.40;;;4.90;;
14472;SDS011;7322;50.872;4.386;2023-06-10T02:37:05;5.53;;;5.10;;
14472;SDS011;7322;50.872;4.386;2023-06-10T02:39:32;5.45;;;4.95;;
14472;SDS011;7322;50.872;4.386;2023-06-10T02:41:59;5.68;;;5.28;;
14472;SDS011;7322;50.872;4.386;2023-06-10T02:44:26;5.88;;;5.38;;
14472;SDS011;7322;50.872;4.386;2023-06-10T02:46:54;5.63;;;5.15;;
14472;SDS011;7322;50.872;4.386;2023-06-10T02:49:21;5.55;;;5.05;;
14472;SDS011;7322;50.872;4.386;2023-06-10T02:51:49;6.03;;;5.53;;
14472;SDS011;7322;50.872;4.386;2023-06-10T02:54:18;6.03;;;5.53;;
14472;SDS011;7322;50.872;4.386;2023-06-10T02:56:45;5.72;;;5.32;;
14472;SDS011;7322;50.872;4.386;2023-06-10T02:59:13;6.22;;;5.63;;
14472;SDS011;7322;50.872;4.386;2023-06-10T03:01:40;5.78;;;5.38;;
14472;SDS011;7322;50.872;4.386;2023-06-10T03:04:08;5.45;;;5.05;;
14472;SDS011;7322;50.872;4.386;2023-06-10T03:06:38;5.82;;;5.40;;
14472;SDS011;7322;50.872;4.386;2023-06-10T03:09:07;5.28;;;4.82;;
14472;SDS011;7322;50.872;4.386;2023-06-10T03:11:34;5.65;;;5.15;;
14472;SDS011;7322;50.872;4.386;2023-06-10T03:14:01;5.35;;;4.95;;
14472;SDS011;7322;50.872;4.386;2023-06-10T03:16:28;6.05;;;5.55;;
14472;SDS011;7322;50.872;4.386;2023-06-10T03:18:56;5.78;;;5.28;;
14472;SDS011;7322;50.872;4.386;2023-06-10T03:21:24;5.85;;;5.25;;
14472;SDS011;7322;50.872;4.386;2023-06-10T03:23:52;5.72;;;5.30;;
14472;SDS011;7322;50.872;4.386;2023-06-10T03:26:19;5.90;;;5.40;;
14472;SDS011;7322;50.872;4.386;2023-06-10T03:28:47;5.25;;;4.85;;
14472;SDS011;7322;50.872;4.386;2023-06-10T03:31:14;6.10;;;5.60;;
14472;SDS011;7322;50.872;4.386;2023-06-10T03:33:42;6.28;;;5.68;;
14472;SDS011;7322;50.872;4.386;2023-06-10T03:36:10;6.13;;;5.63;;
14472;SDS011;7322;50.872;4.386;2023-06-10T03:38:38;5.93;;;5.38;;
14472;SDS011;7322;50.872;4.386;2023-06-10T03:41:06;6.10;;;5.60;;
14472;SDS011;7322;50.872;4.386;2023-06-10T03:43:33;6.45;;;5.95;;
14472;SDS011;7322;50.872;4.386;2023-06-10T03:46:00;5.95;;;5.32;;
14472;SDS011;7322;50.872;4.386;2023-06-10T03:48:27;6.40;;;5.80;;
14472;SDS011;7322;50.872;4.386;2023-06-10T03:50:56;6.40;;;5.80;;
14472;SDS011;7322;50.872;4.386;2023-06-10T03:53:23;6.03;;;5.53;;
14472;SDS011;7322;50.872;4.386;2023-06-10T03:55:52;6.03;;;5.50;;
14472;SDS011;7322;50.872;4.386;2023-06-10T03:58:19;5.72;;;5.22;;
14472;SDS011;7322;50.872;4.386;2023-06-10T04:00:46;6.13;;;5.65;;
14472;SDS011;7322;50.872;4.386;2023-06-10T04:03:14;5.97;;;5.47;;
14472;SDS011;7322;50.872;4.386;2023-06-10T04:05:41;6.05;;;5.55;;
14472;SDS011;7322;50.872;4.386;2023-06-10T04:08:09;6.38;;;5.78;;
14472;SDS011;7322;50.872;4.386;2023-06-10T04:10:36;6.32;;;5.68;;
14472;SDS011;7322;50.872;4.386;2023-06-10T04:13:06;6.93;;;6.25;;
14472;SDS011;7322;50.872;4.386;2023-06-10T04:15:34;7.05;;;5.85;;
14472;SDS011;7322;50.872;4.386;2023-06-10T04:18:01;6.30;;;5.70;;
14472;SDS011;7322;50.872;4.386;2023-06-10T04:20:28;6.28;;;5.53;;
14472;SDS011;7322;50.872;4.386;2023-06-10T04:22:55;6.47;;;5.90;;
14472;SDS011;7322;50.872;4.386;2023-06-10T04:25:23;6.50;;;5.90;;
14472;SDS011;7322;50.872;4.386;2023-06-10T04:27:51;6.00;;;5.50;;
14472;SDS011;7322;50.872;4.386;2023-06-10T04:30:20;6.90;;;6.20;;
14472;SDS011;7322;50.872;4.386;2023-06-10T04:32:47;6.55;;;6.03;;
14472;SDS011;7322;50.872;4.386;2023-06-10T04:35:15;6.60;;;6.00;;
14472;SDS011;7322;50.872;4.386;2023-06-10T04:37:42;5.97;;;5.47;;
14472;SDS011;7322;50.872;4.386;2023-06-10T04:40:09;8.30;;;6.43;;
14472;SDS011;7322;50.872;4.386;2023-06-10T04:42:37;6.45;;;5.85;;
14472;SDS011;7322;50.872;4.386;2023-06-10T04:45:04;6.63;;;6.10;;
14472;SDS011;7322;50.872;4.386;2023-06-10T04:47:33;6.72;;;6.13;;
14472;SDS011;7322;50.872;4.386;2023-06-10T04:50:00;6.30;;;5.60;;
14472;SDS011;7322;50.872;4.386;2023-06-10T04:52:28;7.75;;;6.10;;
14472;SDS011;7322;50.872;4.386;2023-06-10T04:54:56;6.40;;;5.85;;
14472;SDS011;7322;50.872;4.386;2023-06-10T04:57:24;6.68;;;6.00;;
14472;SDS011;7322;50.872;4.386;2023-06-10T04:59:51;6.28;;;5.68;;
14472;SDS011;7322;50.872;4.386;2023-06-10T05:02:18;7.55;;;5.63;;
14472;SDS011;7322;50.872;4.386;2023-06-10T05:04:46;6.40;;;5.80;;
14472;SDS011;7322;50.872;4.386;2023-06-10T05:07:13;6.90;;;6.20;;
14472;SDS011;7322;50.872;4.386;2023-06-10T05:09:41;6.72;;;5.82;;
14472;SDS011;7322;50.872;4.386;2023-06-10T05:12:08;6.00;;;5.40;;
14472;SDS011;7322;50.872;4.386;2023-06-10T05:14:35;6.68;;;5.78;;
14472;SDS011;7322;50.872;4.386;2023-06-10T05:17:05;7.13;;;6.53;;
14472;SDS011;7322;50.872;4.386;2023-06-10T05:19:32;6.72;;;6.10;;
14472;SDS011;7322;50.872;4.386;2023-06-10T05:22:03;6.80;;;6.13;;
14472;SDS011;7322;50.872;4.386;2023-06-10T05:24:34;6.45;;;5.93;;
14472;SDS011;7322;50.872;4.386;2023-06-10T05:27:01;6.20;;;5.60;;
14472;SDS011;7322;50.872;4.386;2023-06-10T05:29:29;6.78;;;5.65;;
14472;SDS011;7322;50.872;4.386;2023-06-10T05:31:56;6.90;;;6.20;;
14472;SDS011;7322;50.872;4.386;2023-06-10T05:34:32;6.40;;;5.80;;
14472;SDS011;7322;50.872;4.386;2023-06-10T05:36:59;6.80;;;6.20;;
14472;SDS011;7322;50.872;4.386;2023-06-10T05:39:27;6.65;;;6.05;;
14472;SDS011;7322;50.872;4.386;2023-06-10T05:41:54;6.47;;;5.72;;
14472;SDS011;7322;50.872;4.386;2023-06-10T05:44:25;6.15;;;5.65;;
14472;SDS011;7322;50.872;4.386;2023-06-10T05:46:52;6.38;;;5.78;;
14472;SDS011;7322;50.872;4.386;2023-06-10T05:49:25;6.60;;;6.10;;
14472;SDS011;7322;50.872;4.386;2023-06-10T05:51:54;7.35;;;6.65;;
14472;SDS011;7322;50.872;4.386;2023-06-10T05:57:28;6.70;;;6.00;;
14472;SDS011;7322;50.872;4.386;2023-06-10T05:59:55;6.63;;;6.13;;
14472;SDS011;7322;50.872;4.386;2023-06-10T06:02:24;7.10;;;6.50;;
14472;SDS011;7322;50.872;4.386;2023-06-10T06:04:52;7.20;;;6.60;;
14472;SDS011;7322;50.872;4.386;2023-06-10T06:10:08;7.07;;;6.20;;
14472;SDS011;7322;50.872;4.386;2023-06-10T06:12:43;6.18;;;5.63;;
14472;SDS011;7322;50.872;4.386;2023-06-10T06:17:55;6.63;;;6.00;;
14472;SDS011;7322;50.872;4.386;2023-06-10T06:23:32;7.05;;;6.35;;
14472;SDS011;7322;50.872;4.386;2023-06-10T06:26:06;6.38;;;5.82;;
14472;SDS011;7322;50.872;4.386;2023-06-10T06:28:41;7.38;;;6.68;;
14472;SDS011;7322;50.872;4.386;2023-06-10T06:31:22;6.72;;;6.10;;
14472;SDS011;7322;50.872;4.386;2023-06-10T06:33:49;6.45;;;5.95;;
14472;SDS011;7322;50.872;4.386;2023-06-10T06:36:17;6.68;;;6.07;;
14472;SDS011;7322;50.872;4.386;2023-06-10T06:38:46;6.80;;;6.22;;
14472;SDS011;7322;50.872;4.386;2023-06-10T06:41:19;6.60;;;6.00;;
14472;SDS011;7322;50.872;4.386;2023-06-10T06:43:49;6.40;;;5.80;;
14472;SDS011;7322;50.872;4.386;2023-06-10T06:46:16;7.07;;;6.47;;
14472;SDS011;7322;50.872;4.386;2023-06-10T06:48:43;6.72;;;6.00;;
14472;SDS011;7322;50.872;4.386;2023-06-10T06:51:10;6.85;;;6.35;;
14472;SDS011;7322;50.872;4.386;2023-06-10T06:53:37;6.88;;;6.28;;
14472;SDS011;7322;50.872;4.386;2023-06-10T06:56:11;6.25;;;5.72;;
14472;SDS011;7322;50.872;4.386;2023-06-10T07:04:14;6.90;;;5.97;;
14472;SDS011;7322;50.872;4.386;2023-06-10T07:06:41;7.13;;;6.43;;
14472;SDS011;7322;50.872;4.386;2023-06-10T07:09:10;7.38;;;6.45;;
14472;SDS011;7322;50.872;4.386;2023-06-10T07:11:37;7.07;;;6.22;;
14472;SDS011;7322;50.872;4.386;2023-06-10T07:14:04;8.88;;;6.38;;
14472;SDS011;7322;50.872;4.386;2023-06-10T07:16:31;8.27;;;6.75;;
14472;SDS011;7322;50.872;4.386;2023-06-10T07:18:59;11.23;;;6.93;;
14472;SDS011;7322;50.872;4.386;2023-06-10T07:21:26;11.07;;;7.20;;
14472;SDS011;7322;50.872;4.386;2023-06-10T07:23:55;12.23;;;7.53;;
14472;SDS011;7322;50.872;4.386;2023-06-10T07:26:22;15.23;;;7.25;;
14472;SDS011;7322;50.872;4.386;2023-06-10T07:28:49;8.63;;;6.78;;
14472;SDS011;7322;50.872;4.386;2023-06-10T07:31:17;11.30;;;6.72;;
14472;SDS011;7322;50.872;4.386;2023-06-10T07:34:00;10.57;;;7.03;;
14472;SDS011;7322;50.872;4.386;2023-06-10T07:36:27;7.80;;;6.43;;
14472;SDS011;7322;50.872;4.386;2023-06-10T07:39:08;9.63;;;6.43;;
14472;SDS011;7322;50.872;4.386;2023-06-10T07:41:49;8.55;;;7.03;;
14472;SDS011;7322;50.872;4.386;2023-06-10T07:44:19;10.30;;;6.65;;
14472;SDS011;7322;50.872;4.386;2023-06-10T07:46:47;12.20;;;7.18;;
14472;SDS011;7322;50.872;4.386;2023-06-10T07:49:15;13.88;;;7.85;;
14472;SDS011;7322;50.872;4.386;2023-06-10T07:54:14;10.45;;;7.38;;
14472;SDS011;7322;50.872;4.386;2023-06-10T07:56:49;12.10;;;7.07;;
14472;SDS011;7322;50.872;4.386;2023-06-10T07:59:18;10.32;;;6.80;;
14472;SDS011;7322;50.872;4.386;2023-06-10T08:01:45;8.75;;;6.85;;
14472;SDS011;7322;50.872;4.386;2023-06-10T08:04:12;12.35;;;6.88;;
14472;SDS011;7322;50.872;4.386;2023-06-10T08:06:40;7.95;;;6.47;;
14472;SDS011;7322;50.872;4.386;2023-06-10T08:09:07;7.75;;;6.72;;
14472;SDS011;7322;50.872;4.386;2023-06-10T08:11:35;9.68;;;6.97;;
14472;SDS011;7322;50.872;4.386;2023-06-10T08:14:02;7.18;;;6.32;;
14472;SDS011;7322;50.872;4.386;2023-06-10T08:16:28;7.53;;;6.20;;
14472;SDS011;7322;50.872;4.386;2023-06-10T08:18:55;9.18;;;6.55;;
14472;SDS011;7322;50.872;4.386;2023-06-10T08:21:22;9.18;;;6.20;;
14472;SDS011;7322;50.872;4.386;2023-06-10T08:23:53;8.88;;;6.20;;
14472;SDS011;7322;50.872;4.386;2023-06-10T08:26:20;8.02;;;6.50;;
14472;SDS011;7322;50.872;4.386;2023-06-10T08:28:47;7.50;;;6.50;;
14472;SDS011;7322;50.872;4.386;2023-06-10T08:31:14;8.32;;;6.45;;
14472;SDS011;7322;50.872;4.386;2023-06-10T08:33:42;10.57;;;6.30;;
14472;SDS011;7322;50.872;4.386;2023-06-10T08:36:09;9.35;;;7.03;;
14472;SDS011;7322;50.872;4.386;2023-06-10T08:38:36;8.40;;;6.15;;
14472;SDS011;7322;50.872;4.386;2023-06-10T08:41:05;8.20;;;6.47;;
14472;SDS011;7322;50.872;4.386;2023-06-10T08:43:33;9.60;;;6.53;;
14472;SDS011;7322;50.872;4.386;2023-06-10T08:46:05;7.85;;;6.03;;
14472;SDS011;7322;50.872;4.386;2023-06-10T08:48:37;9.02;;;5.90;;
14472;SDS011;7322;50.872;4.386;2023-06-10T08:51:09;7.82;;;6.15;;
14472;SDS011;7322;50.872;4.386;2023-06-10T08:53:37;8.48;;;6.13;;
14472;SDS011;7322;50.872;4.386;2023-06-10T08:56:09;7.07;;;5.85;;
14472;SDS011;7322;50.872;4.386;2023-06-10T08:58:36;7.30;;;5.75;;
14472;SDS011;7322;50.872;4.386;2023-06-10T09:01:07;6.75;;;5.95;;
14472;SDS011;7322;50.872;4.386;2023-06-10T09:03:35;7.68;;;6.15;;
14472;SDS011;7322;50.872;4.386;2023-06-10T09:06:04;8.63;;;5.90;;
14472;SDS011;7322;50.872;4.386;2023-06-10T09:08:43;8.23;;;5.90;;
14472;SDS011;7322;50.872;4.386;2023-06-10T09:11:11;6.13;;;5.53;;
14472;SDS011;7322;50.872;4.386;2023-06-10T09:13:38;7.47;;;5.82;;
14472;SDS011;7322;50.872;4.386;2023-06-10T09:16:05;6.22;;;5.60;;
14472;SDS011;7322;50.872;4.386;2023-06-10T09:18:32;7.07;;;6.32;;
14472;SDS011;7322;50.872;4.386;2023-06-10T09:21:00;6.70;;;5.57;;
14472;SDS011;7322;50.872;4.386;2023-06-10T09:23:27;6.95;;;5.90;;
14472;SDS011;7322;50.872;4.386;2023-06-10T09:25:57;7.65;;;5.85;;
14472;SDS011;7322;50.872;4.386;2023-06-10T09:28:27;8.82;;;6.00;;
14472;SDS011;7322;50.872;4.386;2023-06-10T09:31:04;6.63;;;5.63;;
14472;SDS011;7322;50.872;4.386;2023-06-10T09:33:32;6.65;;;6.00;;
14472;SDS011;7322;50.872;4.386;2023-06-10T09:36:03;6.05;;;5.45;;
14472;SDS011;7322;50.872;4.386;2023-06-10T09:38:31;6.35;;;5.75;;
14472;SDS011;7322;50.872;4.386;2023-06-10T09:40:59;7.10;;;6.15;;
14472;SDS011;7322;50.872;4.386;2023-06-10T09:43:39;5.93;;;5.43;;
14472;SDS011;7322;50.872;4.386;2023-06-10T09:46:13;7.72;;;5.82;;
14472;SDS011;7322;50.872;4.386;2023-06-10T09:48:43;7.30;;;5.72;;
14472;SDS011;7322;50.872;4.386;2023-06-10T09:51:11;7.43;;;5.75;;
14472;SDS011;7322;50.872;4.386;2023-06-10T09:53:39;6.68;;;5.72;;
14472;SDS011;7322;50.872;4.386;2023-06-10T09:56:06;6.43;;;5.50;;
14472;SDS011;7322;50.872;4.386;2023-06-10T09:58:33;5.75;;;5.25;;
14472;SDS011;7322;50.872;4.386;2023-06-10T10:01:05;6.30;;;5.70;;
14472;SDS011;7322;50.872;4.386;2023-06-10T10:03:32;6.80;;;6.10;;
14472;SDS011;7322;50.872;4.386;2023-06-10T10:06:00;5.95;;;5.40;;
14472;SDS011;7322;50.872;4.386;2023-06-10T10:08:27;7.05;;;5.57;;
14472;SDS011;7322;50.872;4.386;2023-06-10T10:10:55;6.78;;;5.90;;
14472;SDS011;7322;50.872;4.386;2023-06-10T10:13:24;6.03;;;5.53;;
14472;SDS011;7322;50.872;4.386;2023-06-10T10:15:53;6.20;;;5.60;;
14472;SDS011;7322;50.872;4.386;2023-06-10T10:18:24;6.05;;;5.53;;
14472;SDS011;7322;50.872;4.386;2023-06-10T10:20:55;6.38;;;5.85;;
14472;SDS011;7322;50.872;4.386;2023-06-10T10:23:26;6.03;;;5.50;;
14472;SDS011;7322;50.872;4.386;2023-06-10T10:26:01;6.10;;;5.60;;
14472;SDS011;7322;50.872;4.386;2023-06-10T10:28:34;6.30;;;5.80;;
14472;SDS011;7322;50.872;4.386;2023-06-10T10:31:18;6.03;;;5.45;;
14472;SDS011;7322;50.872;4.386;2023-06-10T10:33:51;6.72;;;5.40;;
14472;SDS011;7322;50.872;4.386;2023-06-10T10:36:22;6.35;;;5.75;;
14472;SDS011;7322;50.872;4.386;2023-06-10T10:38:49;6.28;;;5.68;;
14472;SDS011;7322;50.872;4.386;2023-06-10T10:41:16;6.45;;;5.15;;
14472;SDS011;7322;50.872;4.386;2023-06-10T10:43:45;6.45;;;5.32;;
14472;SDS011;7322;50.872;4.386;2023-06-10T10:46:14;5.95;;;5.45;;
14472;SDS011;7322;50.872;4.386;2023-06-10T10:48:42;6.00;;;5.28;;
14472;SDS011;7322;50.872;4.386;2023-06-10T10:51:11;6.00;;;5.47;;
14472;SDS011;7322;50.872;4.386;2023-06-10T10:53:41;5.68;;;5.13;;
14472;SDS011;7322;50.872;4.386;2023-06-10T10:56:12;5.85;;;4.80;;
14472;SDS011;7322;50.872;4.386;2023-06-10T10:58:40;5.45;;;4.95;;
14472;SDS011;7322;50.872;4.386;2023-06-10T11:01:10;6.13;;;5.63;;
14472;SDS011;7322;50.872;4.386;2023-06-10T11:03:42;5.70;;;5.20;;
14472;SDS011;7322;50.872;4.386;2023-06-10T11:06:13;5.93;;;4.95;;
14472;SDS011;7322;50.872;4.386;2023-06-10T11:08:48;5.40;;;4.72;;
14472;SDS011;7322;50.872;4.386;2023-06-10T11:11:20;5.57;;;5.07;;
14472;SDS011;7322;50.872;4.386;2023-06-10T11:14:06;5.40;;;5.00;;
14472;SDS011;7322;50.872;4.386;2023-06-10T11:16:38;5.53;;;5.13;;
14472;SDS011;7322;50.872;4.386;2023-06-10T11:19:09;5.55;;;5.05;;
14472;SDS011;7322;50.872;4.386;2023-06-10T11:24:27;6.05;;;5.47;;
14472;SDS011;7322;50.872;4.386;2023-06-10T11:32:50;5.80;;;4.70;;
14472;SDS011;7322;50.872;4.386;2023-06-10T11:35:19;5.32;;;4.82;;
14472;SDS011;7322;50.872;4.386;2023-06-10T11:37:49;6.10;;;5.50;;
14472;SDS011;7322;50.872;4.386;2023-06-10T11:40:16;5.75;;;5.20;;
14472;SDS011;7322;50.872;4.386;2023-06-10T11:42:43;5.53;;;5.03;;
14472;SDS011;7322;50.872;4.386;2023-06-10T11:45:14;5.70;;;5.20;;
14472;SDS011;7322;50.872;4.386;2023-06-10T11:47:54;5.60;;;5.07;;
14472;SDS011;7322;50.872;4.386;2023-06-10T11:50:29;5.47;;;4.97;;
14472;SDS011;7322;50.872;4.386;2023-06-10T11:52:58;5.85;;;5.35;;
14472;SDS011;7322;50.872;4.386;2023-06-10T11:55:25;6.15;;;5.18;;
14472;SDS011;7322;50.872;4.386;2023-06-10T11:58:03;6.10;;;5.50;;
14472;SDS011;7322;50.872;4.386;2023-06-10T12:00:31;5.47;;;4.97;;
14472;SDS011;7322;50.872;4.386;2023-06-10T12:02:58;5.22;;;4.80;;
14472;SDS011;7322;50.872;4.386;2023-06-10T12:05:25;5.63;;;5.22;;
14472;SDS011;7322;50.872;4.386;2023-06-10T12:10:39;6.03;;;5.53;;
14472;SDS011;7322;50.872;4.386;2023-06-10T12:13:07;5.78;;;5.28;;
14472;SDS011;7322;50.872;4.386;2023-06-10T12:15:35;5.60;;;5.15;;
14472;SDS011;7322;50.872;4.386;2023-06-10T12:18:02;5.93;;;5.30;;
14472;SDS011;7322;50.872;4.386;2023-06-10T12:20:31;5.95;;;5.35;;
14472;SDS011;7322;50.872;4.386;2023-06-10T12:22:59;5.65;;;5.15;;
14472;SDS011;7322;50.872;4.386;2023-06-10T12:25:28;5.82;;;5.32;;
14472;SDS011;7322;50.872;4.386;2023-06-10T12:27:56;5.70;;;5.20;;
14472;SDS011;7322;50.872;4.386;2023-06-10T12:30:24;5.97;;;5.38;;
14472;SDS011;7322;50.872;4.386;2023-06-10T12:32:53;5.90;;;5.50;;
14472;SDS011;7322;50.872;4.386;2023-06-10T12:35:27;6.03;;;5.43;;
14472;SDS011;7322;50.872;4.386;2023-06-10T12:37:55;5.60;;;5.03;;
14472;SDS011;7322;50.872;4.386;2023-06-10T12:40:29;5.88;;;5.38;;
14472;SDS011;7322;50.872;4.386;2023-06-10T12:42:57;6.05;;;5.45;;
14472;SDS011;7322;50.872;4.386;2023-06-10T12:45:28;8.00;;;5.75;;
14472;SDS011;7322;50.872;4.386;2023-06-10T12:48:06;7.30;;;5.30;;
14472;SDS011;7322;50.872;4.386;2023-06-10T12:50:37;6.13;;;5.63;;
14472;SDS011;7322;50.872;4.386;2023-06-10T12:53:05;5.80;;;5.30;;
14472;SDS011;7322;50.872;4.386;2023-06-10T12:55:38;6.18;;;5.68;;
14472;SDS011;7322;50.872;4.386;2023-06-10T12:58:05;6.38;;;5.88;;
14472;SDS011;7322;50.872;4.386;2023-06-10T13:00:32;6.10;;;5.60;;
14472;SDS011;7322;50.872;4.386;2023-06-10T13:03:00;6.03;;;5.55;;
14472;SDS011;7322;50.872;4.386;2023-06-10T13:05:28;5.82;;;5.32;;
14472;SDS011;7322;50.872;4.386;2023-06-10T13:07:56;5.97;;;5.47;;
14472;SDS011;7322;50.872;4.386;2023-06-10T13:10:25;5.85;;;5.28;;
14472;SDS011;7322;50.872;4.386;2023-06-10T13:12:54;6.30;;;5.47;;
14472;SDS011;7322;50.872;4.386;2023-06-10T13:15:21;5.10;;;4.70;;
14472;SDS011;7322;50.872;4.386;2023-06-10T13:17:48;5.72;;;5.22;;
14472;SDS011;7322;50.872;4.386;2023-06-10T13:20:19;5.93;;;5.43;;
14472;SDS011;7322;50.872;4.386;2023-06-10T13:23:13;6.32;;;5.82;;
14472;SDS011;7322;50.872;4.386;2023-06-10T13:25:43;6.47;;;5.88;;
14472;SDS011;7322;50.872;4.386;2023-06-10T13:31:40;6.47;;;5.50;;
14472;SDS011;7322;50.872;4.386;2023-06-10T13:34:14;6.45;;;5.85;;
14472;SDS011;7322;50.872;4.386;2023-06-10T13:36:43;6.10;;;5.50;;
14472;SDS011;7322;50.872;4.386;2023-06-10T13:39:11;5.97;;;5.47;;
14472;SDS011;7322;50.872;4.386;2023-06-10T13:41:39;6.15;;;5.63;;
14472;SDS011;7322;50.872;4.386;2023-06-10T13:44:15;6.10;;;5.50;;
14472;SDS011;7322;50.872;4.386;2023-06-10T13:46:43;5.60;;;5.15;;
14472;SDS011;7322;50.872;4.386;2023-06-10T13:49:10;6.40;;;5.80;;
14472;SDS011;7322;50.872;4.386;2023-06-10T13:51:37;6.25;;;5.65;;
14472;SDS011;7322;50.872;4.386;2023-06-10T13:54:04;5.97;;;5.47;;
14472;SDS011;7322;50.872;4.386;2023-06-10T13:56:31;5.95;;;5.35;;
14472;SDS011;7322;50.872;4.386;2023-06-10T13:59:02;5.38;;;4.93;;
14472;SDS011;7322;50.872;4.386;2023-06-10T14:01:29;5.93;;;5.43;;
14472;SDS011;7322;50.872;4.386;2023-06-10T14:03:58;7.10;;;6.40;;
14472;SDS011;7322;50.872;4.386;2023-06-10T14:06:26;7.07;;;6.28;;
14472;SDS011;7322;50.872;4.386;2023-06-10T14:09:01;6.82;;;6.15;;
14472;SDS011;7322;50.872;4.386;2023-06-10T14:11:28;6.90;;;6.20;;
14472;SDS011;7322;50.872;4.386;2023-06-10T14:13:56;6.88;;;6.15;;
14472;SDS011;7322;50.872;4.386;2023-06-10T14:16:24;5.90;;;5.40;;
14472;SDS011;7322;50.872;4.386;2023-06-10T14:18:51;6.70;;;5.88;;
14472;SDS011;7322;50.872;4.386;2023-06-10T14:21:20;6.13;;;5.63;;
14472;SDS011;7322;50.872;4.386;2023-06-10T14:23:47;7.13;;;5.82;;
14472;SDS011;7322;50.872;4.386;2023-06-10T14:26:16;6.47;;;5.80;;
14472;SDS011;7322;50.872;4.386;2023-06-10T14:28:44;6.63;;;6.13;;
14472;SDS011;7322;50.872;4.386;2023-06-10T14:31:10;6.85;;;5.55;;
14472;SDS011;7322;50.872;4.386;2023-06-10T14:33:37;6.45;;;5.85;;
14472;SDS011;7322;50.872;4.386;2023-06-10T14:36:07;7.18;;;5.90;;
14472;SDS011;7322;50.872;4.386;2023-06-10T14:38:35;6.20;;;5.60;;
14472;SDS011;7322;50.872;4.386;2023-06-10T14:41:02;5.90;;;5.40;;
14472;SDS011;7322;50.872;4.386;2023-06-10T14:43:29;6.35;;;5.75;;
14472;SDS011;7322;50.872;4.386;2023-06-10T14:45:56;6.32;;;5.82;;
14472;SDS011;7322;50.872;4.386;2023-06-10T14:48:23;6.43;;;5.55;;
14472;SDS011;7322;50.872;4.386;2023-06-10T14:50:56;6.28;;;5.68;;
14472;SDS011;7322;50.872;4.386;2023-06-10T14:53:24;5.38;;;4.93;;
14472;SDS011;7322;50.872;4.386;2023-06-10T14:55:55;6.65;;;6.05;;
14472;SDS011;7322;50.872;4.386;2023-06-10T14:58:28;6.10;;;5.47;;
14472;SDS011;7322;50.872;4.386;2023-06-10T15:00:57;6.63;;;5.63;;
14472;SDS011;7322;50.872;4.386;2023-06-10T15:03:27;5.97;;;5.47;;
14472;SDS011;7322;50.872;4.386;2023-06-10T15:05:54;7.55;;;5.82;;
14472;SDS011;7322;50.872;4.386;2023-06-10T15:08:21;6.97;;;6.28;;
14472;SDS011;7322;50.872;4.386;2023-06-10T15:10:48;6.65;;;6.05;;
14472;SDS011;7322;50.872;4.386;2023-06-10T15:13:17;6.30;;;5.80;;
14472;SDS011;7322;50.872;4.386;2023-06-10T15:15:45;6.40;;;5.80;;
14472;SDS011;7322;50.872;4.386;2023-06-10T15:18:18;6.18;;;5.68;;
14472;SDS011;7322;50.872;4.386;2023-06-10T15:23:34;6.68;;;5.97;;
14472;SDS011;7322;50.872;4.386;2023-06-10T15:26:01;5.93;;;5.43;;
14472;SDS011;7322;50.872;4.386;2023-06-10T15:28:30;6.20;;;5.65;;
14472;SDS011;7322;50.872;4.386;2023-06-10T15:30:57;6.03;;;5.53;;
14472;SDS011;7322;50.872;4.386;2023-06-10T15:36:27;5.90;;;5.40;;
14472;SDS011;7322;50.872;4.386;2023-06-10T15:38:54;6.10;;;5.50;;
14472;SDS011;7322;50.872;4.386;2023-06-10T15:41:23;6.18;;;5.57;;
14472;SDS011;7322;50.872;4.386;2023-06-10T15:43:51;5.75;;;5.25;;
14472;SDS011;7322;50.872;4.386;2023-06-10T15:46:18;6.40;;;5.82;;
14472;SDS011;7322;50.872;4.386;2023-06-10T15:48:46;5.78;;;5.32;;
14472;SDS011;7322;50.872;4.386;2023-06-10T15:51:13;5.65;;;5.15;;